首页
METAR-TAF:

METAR-TAF

机场 :

Palm Beach International Airport

西棕榈滩, 佛罗里达州, 美国

纬度: 26-41-05N, 经度: 080-05-58W, 海拔: 5米

当前天气观测

该预报发布于20分钟前的14:53 UTC
静风
温度 28°C
湿度 58%
气压 1021 hPa
能見度: 16.1公里
散云层高于2500英尺
散云层高于3500英尺

METAR: KPBI 301453Z 00000KT 10SM SCT025 SCT035 28/19 A3016 RMK AO2 SLP213 T02830189 50006 $

时间: 11:13 (15:13 UTC)

预报

该预报发布于17分钟前的14:56 UTC
预报有效从30日的 15点(UTC)到 31日的 12点(UTC)
风速9节,风向南转南东
能見度: 10公里
散云层高于2500英尺
散云层高于3500英尺
从 31日的 0300点(UTC)
风速4节,风向多变
能見度: 10公里
散云层高于3000英尺

TAF: KPBI 301456Z 3015/3112 15009KT P6SM SCT025 SCT035 FM310300 VRB04KT P6SM SCT030

超过4000个机场的气象观测和天气预报(METAR&TAF报告)。

可查询的气象台以黄色和红色小点在地图上表示。

将鼠标移到小点上方,可查看气象台名称。

然后点击查看天气观测和预报。

如需切换地图:点击带黑十字的绿色按钮放大地图;点击带横线的绿色按钮缩小地图;或者点击绿色箭头查看邻近地区的地图。


METAR-TAF: